createdAt,value
2019-03-20T00:00:43.771Z,66.94
2019-03-20T00:03:11.825Z,66.55
2019-03-20T00:05:39.984Z,65.95
2019-03-20T00:08:07.781Z,65.38
2019-03-20T00:10:35.576Z,64.97
2019-03-20T00:13:03.470Z,64.96
2019-03-20T00:15:31.241Z,64.96
2019-03-20T00:17:59.038Z,64.93
2019-03-20T00:20:26.842Z,64.64
2019-03-20T00:22:54.671Z,64.86
2019-03-20T00:25:22.411Z,64.56
2019-03-20T00:27:50.743Z,64.42
2019-03-20T00:30:18.577Z,64.70
2019-03-20T00:32:46.463Z,65.04
2019-03-20T00:35:14.201Z,65.21
2019-03-20T00:37:42.073Z,65.02
2019-03-20T00:40:11.118Z,65.44
2019-03-20T00:42:38.871Z,65.78
2019-03-20T00:45:08.500Z,66.40
2019-03-20T00:47:36.256Z,66.62
2019-03-20T00:50:04.829Z,66.87
2019-03-20T00:52:32.573Z,67.01
2019-03-20T00:55:00.409Z,67.31
2019-03-20T00:57:28.245Z,67.27
2019-03-20T00:59:56.050Z,67.29
2019-03-20T01:02:23.850Z,67.69
2019-03-20T01:04:51.601Z,67.95
2019-03-20T01:07:19.357Z,67.59
2019-03-20T01:09:47.115Z,67.62
2019-03-20T01:12:14.891Z,68.01
2019-03-20T01:14:42.663Z,68.30
2019-03-20T01:17:10.403Z,68.44
2019-03-20T01:19:38.205Z,68.09
2019-03-20T01:22:07.604Z,67.89
2019-03-20T01:24:35.353Z,67.63
2019-03-20T01:27:03.245Z,68.04
2019-03-20T01:29:31.018Z,68.51
2019-03-20T01:31:58.778Z,68.65
2019-03-20T01:34:26.578Z,68.44
2019-03-20T01:36:54.330Z,68.32
2019-03-20T01:39:22.180Z,68.15
2019-03-20T01:41:49.992Z,68.48
2019-03-20T01:44:17.765Z,68.92
2019-03-20T01:46:45.516Z,69.02
2019-03-20T01:49:13.314Z,69.12
2019-03-20T01:51:41.038Z,69.18
2019-03-20T01:54:08.815Z,69.23
2019-03-20T01:56:36.619Z,69.10
2019-03-20T01:59:04.413Z,69.34
2019-03-20T02:01:32.185Z,69.15
2019-03-20T02:03:59.920Z,69.31
2019-03-20T02:06:27.686Z,69.37
2019-03-20T02:08:55.424Z,69.25
2019-03-20T02:11:23.224Z,68.97
2019-03-20T02:13:51.016Z,69.13
2019-03-20T02:16:18.880Z,69.56
2019-03-20T02:18:46.618Z,69.70
2019-03-20T02:21:14.406Z,69.65
2019-03-20T02:23:42.172Z,69.79
2019-03-20T02:26:09.937Z,69.75
2019-03-20T02:28:37.668Z,69.53
2019-03-20T02:31:05.540Z,69.42
2019-03-20T02:33:33.325Z,69.51
2019-03-20T02:36:01.114Z,69.92
2019-03-20T02:38:28.849Z,70.17
2019-03-20T02:40:56.616Z,70.45
2019-03-20T02:43:24.402Z,70.37
2019-03-20T02:45:52.195Z,70.68
2019-03-20T02:48:19.926Z,71.05
2019-03-20T02:50:47.706Z,71.11
2019-03-20T02:53:15.447Z,71.27
2019-03-20T02:55:43.213Z,71.39
2019-03-20T02:58:11.250Z,71.54
2019-03-20T03:00:39.405Z,71.66
2019-03-20T03:03:07.544Z,71.99
2019-03-20T03:05:35.334Z,72.22
2019-03-20T03:08:03.249Z,72.19
2019-03-20T03:10:31.260Z,72.25
2019-03-20T03:12:59.059Z,72.40
2019-03-20T03:15:26.817Z,72.53
2019-03-20T03:17:54.967Z,72.70
2019-03-20T03:20:22.731Z,72.81
2019-03-20T03:22:50.537Z,73.10
2019-03-20T03:25:18.292Z,73.23
2019-03-20T03:27:46.097Z,73.17
2019-03-20T03:30:13.996Z,73.30
2019-03-20T03:32:41.830Z,73.31
2019-03-20T03:35:15.508Z,73.39
2019-03-20T03:37:39.367Z,73.57
2019-03-20T03:40:08.101Z,73.18
2019-03-20T03:42:35.892Z,73.07
2019-03-20T03:45:04.808Z,73.04
2019-03-20T03:47:32.686Z,73.37
2019-03-20T03:50:00.599Z,73.28
2019-03-20T03:52:28.516Z,73.12
2019-03-20T03:54:56.267Z,73.30
2019-03-20T03:57:24.446Z,73.57
2019-03-20T03:59:52.209Z,73.85
2019-03-20T04:02:20.269Z,73.57
2019-03-20T04:04:48.004Z,73.21
2019-03-20T04:07:15.774Z,73.21
2019-03-20T04:09:43.583Z,73.09
2019-03-20T04:12:11.454Z,73.21
2019-03-20T04:14:39.254Z,73.58
2019-03-20T04:17:23.673Z,73.65
2019-03-20T04:19:51.486Z,73.44
2019-03-20T04:22:19.373Z,73.51
2019-03-20T04:24:47.107Z,73.41
2019-03-20T04:27:15.015Z,73.64
2019-03-20T04:29:42.741Z,73.90
2019-03-20T04:32:10.509Z,73.95
2019-03-20T04:34:38.261Z,73.83
2019-03-20T04:37:06.069Z,73.97
2019-03-20T04:39:33.842Z,73.82
2019-03-20T04:42:02.381Z,73.85
2019-03-20T04:44:30.213Z,73.81
2019-03-20T04:46:57.966Z,73.99
2019-03-20T04:49:25.748Z,73.90
2019-03-20T04:51:53.484Z,74.04
2019-03-20T04:54:21.258Z,73.80
2019-03-20T04:56:48.997Z,73.83
2019-03-20T04:59:16.774Z,73.77
2019-03-20T05:01:44.558Z,73.93
2019-03-20T05:04:12.373Z,73.89
2019-03-20T05:06:40.125Z,73.96
2019-03-20T05:09:07.940Z,74.06
2019-03-20T05:11:35.709Z,73.81
2019-03-20T05:14:03.496Z,73.50
2019-03-20T05:16:31.278Z,73.31
2019-03-20T05:18:59.076Z,73.19
2019-03-20T05:21:26.881Z,73.33
2019-03-20T05:23:54.662Z,73.08
2019-03-20T05:26:22.425Z,73.04
2019-03-20T05:28:50.222Z,72.92
2019-03-20T05:31:17.972Z,72.45
2019-03-20T05:33:45.791Z,72.19
2019-03-20T05:36:13.750Z,72.46
2019-03-20T05:38:41.555Z,72.41
2019-03-20T05:41:09.428Z,72.49
2019-03-20T05:43:37.258Z,72.27
2019-03-20T05:46:05.054Z,71.68
2019-03-20T05:48:32.934Z,71.71
2019-03-20T05:51:02.968Z,71.58
2019-03-20T05:53:30.924Z,71.41
2019-03-20T05:55:58.691Z,71.66
2019-03-20T05:58:26.427Z,71.51
2019-03-20T06:00:54.264Z,71.55
2019-03-20T06:03:22.094Z,71.41
2019-03-20T06:05:49.911Z,71.33
2019-03-20T06:08:17.657Z,70.96
2019-03-20T06:10:45.442Z,71.17
2019-03-20T06:13:13.209Z,70.95
2019-03-20T06:15:41.006Z,70.74
2019-03-20T06:18:10.825Z,70.39
2019-03-20T06:20:38.622Z,70.11
2019-03-20T06:23:06.661Z,70.40
2019-03-20T06:25:34.463Z,70.09
2019-03-20T06:28:02.226Z,69.88
2019-03-20T06:30:30.003Z,69.67
2019-03-20T06:32:59.781Z,69.25
2019-03-20T06:35:27.445Z,68.93
2019-03-20T06:37:55.270Z,68.70
2019-03-20T06:40:23.098Z,68.56
2019-03-20T06:42:50.975Z,68.50
2019-03-20T06:45:18.731Z,67.93
2019-03-20T06:47:46.480Z,67.91
2019-03-20T06:50:14.530Z,67.45
2019-03-20T06:52:42.339Z,67.43
2019-03-20T06:55:10.293Z,67.93
2019-03-20T06:57:38.075Z,66.74
2019-03-20T07:01:01.309Z,66.11
2019-03-20T07:03:47.631Z,66.22
2019-03-20T07:06:42.723Z,65.61
2019-03-20T07:09:40.368Z,65.40
2019-03-20T07:12:08.143Z,64.84
2019-03-20T07:14:35.966Z,64.55
2019-03-20T07:17:03.773Z,64.41
2019-03-20T07:19:31.591Z,64.46
2019-03-20T07:21:59.414Z,64.40
2019-03-20T07:24:27.270Z,63.56
2019-03-20T07:26:55.102Z,63.80
2019-03-20T07:29:22.953Z,63.59
2019-03-20T07:31:50.797Z,63.73
2019-03-20T07:34:21.082Z,63.37
2019-03-20T07:36:49.119Z,62.95
2019-03-20T07:39:16.857Z,62.97
2019-03-20T07:41:44.664Z,62.60
2019-03-20T07:44:12.441Z,61.77
2019-03-20T07:46:40.242Z,61.80
2019-03-20T07:49:08.114Z,61.16
2019-03-20T07:51:35.956Z,61.67
2019-03-20T07:54:03.815Z,61.54
2019-03-20T07:56:31.588Z,60.65
2019-03-20T07:58:59.466Z,60.45
2019-03-20T08:01:27.256Z,60.82
2019-03-20T08:03:55.036Z,60.39
2019-03-20T08:06:22.794Z,59.67
2019-03-20T08:08:50.656Z,59.49
2019-03-20T08:11:19.934Z,59.42
2019-03-20T08:13:47.772Z,58.91
2019-03-20T08:16:15.550Z,59.00
2019-03-20T08:18:43.369Z,58.58
2019-03-20T08:21:11.432Z,58.72
2019-03-20T08:23:39.246Z,58.67
2019-03-20T08:26:07.809Z,58.04
2019-03-20T08:28:35.565Z,56.93
2019-03-20T08:31:03.402Z,56.76
2019-03-20T08:33:31.145Z,56.58
2019-03-20T08:35:58.915Z,56.38
2019-03-20T08:38:26.710Z,56.13
2019-03-20T08:40:54.754Z,56.14
2019-03-20T08:43:22.614Z,55.82
2019-03-20T08:45:50.386Z,55.78
2019-03-20T08:48:18.185Z,55.51
2019-03-20T08:50:45.953Z,54.96
2019-03-20T08:53:13.723Z,54.23
2019-03-20T08:55:41.525Z,54.20
2019-03-20T08:58:09.318Z,53.60
2019-03-20T09:00:37.141Z,53.31
2019-03-20T09:03:04.929Z,52.51
2019-03-20T09:05:32.759Z,51.72
2019-03-20T09:08:00.553Z,51.71
2019-03-20T09:10:28.330Z,51.37
2019-03-20T09:12:56.117Z,51.84
2019-03-20T09:15:23.908Z,51.70
2019-03-20T09:17:51.704Z,50.88
2019-03-20T09:20:19.503Z,50.94
2019-03-20T09:22:47.274Z,49.84
2019-03-20T09:25:16.450Z,48.96
2019-03-20T09:27:44.244Z,48.27
2019-03-20T09:30:15.970Z,48.49
2019-03-20T09:32:43.738Z,47.55
2019-03-20T09:35:11.598Z,44.79
2019-03-20T09:37:39.377Z,39.86
2019-03-20T09:40:09.453Z,35.92
2019-03-20T09:42:37.224Z,31.17
2019-03-20T09:45:06.706Z,26.82
2019-03-20T09:47:34.458Z,24.17
2019-03-20T09:50:02.274Z,21.23
2019-03-20T09:52:30.052Z,19.13
2019-03-20T09:54:58.119Z,18.49
2019-03-20T09:57:25.854Z,17.70
2019-03-20T09:59:53.655Z,17.80
2019-03-20T10:02:21.740Z,16.85
2019-03-20T10:04:49.526Z,17.77
2019-03-20T10:07:17.315Z,15.88
2019-03-20T10:09:45.212Z,14.27
2019-03-20T10:12:13.054Z,15.39
2019-03-20T10:14:40.884Z,15.61
2019-03-20T10:17:10.861Z,15.15
2019-03-20T10:19:38.641Z,14.71
2019-03-20T10:22:06.421Z,14.98
2019-03-20T10:24:36.017Z,15.68
2019-03-20T10:27:03.836Z,16.20
2019-03-20T10:29:31.721Z,15.72
2019-03-20T10:31:59.515Z,15.12
2019-03-20T10:34:27.277Z,14.52
2019-03-20T10:36:55.048Z,14.49
2019-03-20T10:39:22.825Z,14.65
2019-03-20T10:41:50.631Z,14.68
2019-03-20T10:44:18.419Z,13.68
2019-03-20T10:46:46.197Z,12.59
2019-03-20T10:49:13.973Z,12.21
2019-03-20T10:51:41.795Z,12.32
2019-03-20T10:54:09.566Z,13.12
2019-03-20T10:56:37.362Z,12.65
2019-03-20T10:59:05.941Z,14.59
2019-03-20T11:01:42.143Z,14.72
2019-03-20T11:04:03.413Z,12.82
2019-03-20T11:06:32.221Z,12.66
2019-03-20T11:09:00.011Z,15.33
2019-03-20T11:11:27.847Z,18.45
2019-03-20T11:13:55.594Z,20.97
2019-03-20T11:16:23.672Z,23.83
2019-03-20T11:18:51.548Z,26.43
2019-03-20T11:21:22.216Z,29.25
2019-03-20T11:23:49.922Z,30.00
2019-03-20T11:26:17.719Z,25.05
2019-03-20T11:28:45.542Z,18.69
2019-03-20T11:31:13.385Z,15.58
2019-03-20T11:33:41.250Z,13.21
2019-03-20T11:36:09.076Z,12.25
2019-03-20T11:38:36.872Z,11.17
2019-03-20T11:41:04.731Z,10.14
2019-03-20T11:43:32.497Z,9.34
2019-03-20T11:46:00.259Z,8.86
2019-03-20T11:48:28.106Z,8.72
2019-03-20T11:50:55.842Z,8.87
2019-03-20T11:53:23.588Z,8.72
2019-03-20T11:55:51.398Z,8.26
2019-03-20T11:58:19.260Z,8.83
2019-03-20T12:00:47.106Z,8.45
2019-03-20T12:03:15.005Z,9.18
2019-03-20T12:05:42.740Z,9.31
2019-03-20T12:08:10.531Z,9.97
2019-03-20T12:10:38.292Z,10.23
2019-03-20T12:13:06.083Z,9.87
2019-03-20T12:15:33.845Z,10.00
2019-03-20T12:18:01.651Z,9.83
2019-03-20T12:20:29.459Z,10.22
2019-03-20T12:22:57.243Z,9.78
2019-03-20T12:25:28.325Z,9.42
2019-03-20T12:27:56.311Z,9.82
2019-03-20T12:30:26.361Z,9.18
2019-03-20T12:32:54.188Z,8.87
2019-03-20T12:35:22.323Z,9.27
2019-03-20T12:37:50.227Z,9.79
2019-03-20T12:40:23.587Z,9.61
2019-03-20T12:42:53.049Z,9.19
2019-03-20T12:45:23.617Z,9.08
2019-03-20T12:47:51.719Z,8.46
2019-03-20T12:50:19.541Z,8.21
2019-03-20T12:52:47.326Z,7.97
2019-03-20T12:55:15.986Z,7.65
2019-03-20T12:57:43.743Z,7.86
2019-03-20T13:00:17.792Z,8.06
2019-03-20T13:02:45.572Z,8.77
2019-03-20T13:05:14.229Z,9.03
2019-03-20T13:07:42.085Z,8.86
2019-03-20T13:10:12.724Z,8.94
2019-03-20T13:12:41.528Z,8.56
2019-03-20T13:15:17.973Z,8.85
2019-03-20T13:17:46.091Z,9.00
2019-03-20T13:20:13.957Z,9.33
2019-03-20T13:22:41.894Z,9.05
2019-03-20T13:25:11.032Z,8.95
2019-03-20T13:27:38.846Z,9.22
2019-03-20T13:30:20.478Z,9.38
2019-03-20T13:32:47.424Z,9.90
2019-03-20T13:35:15.324Z,10.05
2019-03-20T13:37:43.106Z,9.76
2019-03-20T13:40:14.692Z,9.89
2019-03-20T13:42:40.784Z,10.70
2019-03-20T13:45:11.984Z,11.74
2019-03-20T13:47:39.779Z,11.37
2019-03-20T13:50:09.692Z,12.26
2019-03-20T13:52:37.460Z,10.93
2019-03-20T13:55:05.699Z,11.49
2019-03-20T13:57:33.507Z,11.01
2019-03-20T14:00:01.319Z,11.03
2019-03-20T14:02:29.139Z,12.68
2019-03-20T14:04:56.889Z,12.69
2019-03-20T14:07:24.648Z,12.83
2019-03-20T14:09:52.447Z,12.29
2019-03-20T14:12:20.183Z,12.14
2019-03-20T14:14:48.026Z,11.71
2019-03-20T14:17:15.829Z,12.33
2019-03-20T14:19:43.601Z,12.51
2019-03-20T14:22:11.381Z,12.98
2019-03-20T14:24:39.147Z,13.71
2019-03-20T14:27:06.926Z,13.53
2019-03-20T14:29:35.490Z,13.57
2019-03-20T14:32:03.668Z,13.24
2019-03-20T14:34:31.436Z,13.39
2019-03-20T14:36:59.209Z,13.54
2019-03-20T14:39:26.957Z,13.52
2019-03-20T14:41:54.735Z,13.70
2019-03-20T14:44:22.509Z,14.50
2019-03-20T14:46:50.285Z,14.52
2019-03-20T14:49:18.037Z,14.69
2019-03-20T14:51:45.812Z,14.81
2019-03-20T14:54:14.959Z,15.07
2019-03-20T14:56:42.761Z,15.26
2019-03-20T14:59:10.500Z,15.75
2019-03-20T15:01:38.375Z,16.61
2019-03-20T15:04:06.145Z,17.63
2019-03-20T15:06:33.985Z,19.32
2019-03-20T15:09:01.761Z,21.29
2019-03-20T15:11:29.539Z,21.95
2019-03-20T15:13:59.578Z,22.88
2019-03-20T15:16:27.344Z,24.44
2019-03-20T15:18:55.115Z,26.20
2019-03-20T15:21:22.881Z,26.99
2019-03-20T15:23:50.680Z,27.87
2019-03-20T15:26:18.736Z,28.26
2019-03-20T15:28:46.511Z,29.74
2019-03-20T15:31:14.311Z,30.83
2019-03-20T15:33:42.079Z,30.96
2019-03-20T15:36:10.511Z,31.61
2019-03-20T15:38:38.476Z,32.28
2019-03-20T15:41:06.231Z,32.38
2019-03-20T15:43:34.014Z,33.25
2019-03-20T15:46:01.799Z,33.60
2019-03-20T15:48:29.556Z,34.08
2019-03-20T15:50:57.316Z,34.54
2019-03-20T15:53:25.075Z,34.84
2019-03-20T15:55:52.812Z,35.09
2019-03-20T15:58:20.587Z,35.33
2019-03-20T16:00:48.359Z,35.59
2019-03-20T16:03:16.877Z,35.73
2019-03-20T16:05:44.643Z,36.04
2019-03-20T16:08:12.424Z,36.23
2019-03-20T16:10:40.212Z,37.44
2019-03-20T16:13:08.037Z,37.42
2019-03-20T16:15:35.789Z,37.61
2019-03-20T16:18:03.689Z,37.86
2019-03-20T16:20:31.489Z,37.74
2019-03-20T16:22:59.288Z,37.32
2019-03-20T16:25:27.060Z,37.73
2019-03-20T16:27:54.806Z,37.82
2019-03-20T16:30:22.617Z,37.62
2019-03-20T16:32:50.414Z,37.81
2019-03-20T16:35:18.155Z,38.23
2019-03-20T16:37:45.899Z,38.28
2019-03-20T16:40:16.673Z,38.57
2019-03-20T16:42:44.419Z,38.74
2019-03-20T16:45:15.965Z,38.98
2019-03-20T16:47:43.815Z,39.35
2019-03-20T16:50:12.587Z,39.60
2019-03-20T16:52:40.367Z,40.22
2019-03-20T16:55:09.365Z,40.31
2019-03-20T16:57:37.145Z,40.58
2019-03-20T17:00:06.909Z,40.83
2019-03-20T17:02:34.681Z,41.40
2019-03-20T17:05:02.736Z,41.30
2019-03-20T17:07:30.491Z,41.45
2019-03-20T17:09:58.306Z,41.82
2019-03-20T17:12:26.126Z,42.34
2019-03-20T17:14:53.916Z,42.56
2019-03-20T17:17:21.788Z,43.18
2019-03-20T17:19:50.264Z,43.68
2019-03-20T17:22:18.052Z,43.16
2019-03-20T17:24:45.823Z,43.74
2019-03-20T17:27:13.588Z,44.31
2019-03-20T17:29:41.350Z,44.59
2019-03-20T17:32:09.178Z,44.33
2019-03-20T17:34:36.958Z,44.22
2019-03-20T17:37:04.732Z,44.16
2019-03-20T17:39:32.484Z,44.70
2019-03-20T17:42:00.260Z,44.83
2019-03-20T17:44:28.070Z,44.74
2019-03-20T17:46:55.830Z,44.80
2019-03-20T17:49:23.680Z,45.03
2019-03-20T17:51:51.578Z,45.55
2019-03-20T17:54:19.308Z,45.89
2019-03-20T17:56:50.168Z,46.14
2019-03-20T17:59:17.752Z,46.25
2019-03-20T18:01:45.617Z,46.93
2019-03-20T18:04:13.397Z,47.23
2019-03-20T18:06:41.210Z,47.42
2019-03-20T18:09:09.160Z,47.47
2019-03-20T18:11:46.836Z,48.02
2019-03-20T18:14:06.694Z,48.09
2019-03-20T18:16:34.519Z,47.94
2019-03-20T18:19:02.324Z,48.23
2019-03-20T18:21:30.107Z,48.03
2019-03-20T18:23:57.835Z,48.08
2019-03-20T18:26:25.618Z,48.07
2019-03-20T18:28:53.387Z,48.26
2019-03-20T18:31:21.215Z,48.77
2019-03-20T18:33:48.967Z,48.33
2019-03-20T18:36:16.768Z,48.52
2019-03-20T18:38:44.558Z,49.18
2019-03-20T18:41:12.405Z,50.48
2019-03-20T18:43:40.160Z,50.26
2019-03-20T18:46:07.931Z,49.84
2019-03-20T18:48:36.252Z,50.47
2019-03-20T18:51:04.273Z,49.68
2019-03-20T18:53:32.123Z,49.26
2019-03-20T18:55:59.998Z,49.98
2019-03-20T18:58:27.824Z,50.42
2019-03-20T19:00:55.658Z,50.57
2019-03-20T19:03:23.553Z,50.18
2019-03-20T19:05:56.680Z,50.80
2019-03-20T19:08:24.611Z,50.84
2019-03-20T19:10:52.454Z,50.75
2019-03-20T19:13:20.374Z,50.72
2019-03-20T19:15:48.135Z,50.78
2019-03-20T19:18:15.970Z,50.97
2019-03-20T19:20:43.743Z,51.30
2019-03-20T19:23:11.510Z,51.47
2019-03-20T19:25:39.288Z,51.46
2019-03-20T19:28:07.100Z,51.57
2019-03-20T19:30:35.003Z,51.95
2019-03-20T19:33:03.039Z,52.16
2019-03-20T19:35:30.802Z,52.49
2019-03-20T19:37:58.606Z,51.80
2019-03-20T19:40:26.443Z,51.69
2019-03-20T19:42:54.283Z,51.76
2019-03-20T19:45:22.051Z,51.44
2019-03-20T19:47:49.850Z,52.05
2019-03-20T19:50:17.642Z,51.63
2019-03-20T19:52:45.645Z,51.56
2019-03-20T19:55:13.508Z,51.28
2019-03-20T19:57:41.313Z,51.21
2019-03-20T20:00:12.620Z,51.06
2019-03-20T20:02:40.603Z,51.12
2019-03-20T20:05:15.605Z,51.32
2019-03-20T20:07:38.621Z,51.53
2019-03-20T20:10:07.398Z,51.44
2019-03-20T20:12:35.151Z,51.48
2019-03-20T20:15:03.451Z,51.55
2019-03-20T20:17:31.200Z,51.54
2019-03-20T20:19:58.979Z,51.81
2019-03-20T20:22:26.772Z,52.03
2019-03-20T20:24:54.599Z,52.27
2019-03-20T20:27:22.424Z,51.78
2019-03-20T20:29:50.337Z,51.92
2019-03-20T20:32:18.898Z,51.68
2019-03-20T20:34:46.799Z,51.50
2019-03-20T20:37:14.707Z,51.37
2019-03-20T20:39:42.497Z,51.13
2019-03-20T20:42:10.334Z,51.42
2019-03-20T20:44:38.122Z,51.12
2019-03-20T20:47:06.174Z,51.36
2019-03-20T20:49:33.992Z,51.02
2019-03-20T20:52:02.826Z,51.26
2019-03-20T20:54:30.613Z,50.96
2019-03-20T20:56:58.423Z,51.42
2019-03-20T20:59:26.245Z,51.25
2019-03-20T21:01:54.059Z,51.93
2019-03-20T21:04:21.953Z,52.02
2019-03-20T21:06:49.840Z,52.46
2019-03-20T21:09:17.637Z,52.72
2019-03-20T21:11:45.461Z,52.04
2019-03-20T21:14:13.258Z,52.22
2019-03-20T21:16:42.753Z,52.37
2019-03-20T21:19:31.765Z,52.53
2019-03-20T21:22:49.327Z,52.38
2019-03-20T21:25:21.940Z,52.59
2019-03-20T21:29:06.369Z,52.72
2019-03-20T21:31:42.869Z,52.77
2019-03-20T21:35:20.461Z,53.08
2019-03-20T21:38:05.762Z,53.47
2019-03-20T21:41:33.992Z,53.72
2019-03-20T21:44:54.566Z,53.59
2019-03-20T21:47:33.939Z,53.79
2019-03-20T21:51:20.887Z,53.66
2019-03-20T21:54:58.540Z,53.90
2019-03-20T21:58:24.593Z,54.06
2019-03-20T22:01:46.596Z,54.30
2019-03-20T22:04:15.286Z,53.94
2019-03-20T22:07:12.107Z,53.79
2019-03-20T22:10:47.517Z,53.68
2019-03-20T22:13:45.658Z,53.31
2019-03-20T22:17:27.845Z,53.12
2019-03-20T22:20:30.835Z,52.79
2019-03-20T22:23:55.775Z,52.40
2019-03-20T22:27:03.290Z,52.56
2019-03-20T22:29:31.878Z,52.47
2019-03-20T22:33:08.653Z,52.57
2019-03-20T22:36:04.166Z,52.45
2019-03-20T22:39:40.967Z,52.20
2019-03-20T22:42:22.758Z,52.28
2019-03-20T22:45:44.973Z,52.36
2019-03-20T22:48:55.379Z,52.29
2019-03-20T22:51:58.674Z,52.17
2019-03-20T22:55:14.505Z,52.20
2019-03-20T22:58:40.419Z,52.24
2019-03-20T23:01:10.230Z,52.07
2019-03-20T23:03:47.507Z,52.16
2019-03-20T23:06:16.069Z,52.13
2019-03-20T23:08:44.673Z,52.25
2019-03-20T23:11:13.237Z,52.27
2019-03-20T23:13:42.018Z,52.18
2019-03-20T23:16:12.421Z,52.05
2019-03-20T23:18:40.991Z,52.19
2019-03-20T23:21:09.577Z,51.91
2019-03-20T23:23:39.845Z,52.04
2019-03-20T23:26:08.695Z,51.89
2019-03-20T23:28:37.232Z,51.97
2019-03-20T23:31:05.804Z,52.25
2019-03-20T23:33:34.344Z,52.27
2019-03-20T23:36:03.070Z,52.23
2019-03-20T23:38:31.646Z,52.29
2019-03-20T23:41:00.216Z,52.36
2019-03-20T23:43:28.778Z,52.21
2019-03-20T23:45:57.323Z,52.34
2019-03-20T23:48:43.932Z,52.19
2019-03-20T23:51:15.496Z,52.30
2019-03-20T23:53:48.291Z,52.47
2019-03-20T23:56:16.873Z,52.36
2019-03-20T23:58:45.408Z,52.28
